Borovsk, Russia
Current Conditions -  °F | °C
As of 5:00 PM on Wednesday 28 Jan 2015 (Local Time) from UUWW Reporting Station
Overcast Overcast  
Wind Chill: 15°   Ceiling: 10000
Heat Index: 23°   Visibility: 6mi
Dew Point: 19°   Wind: 7mph
Humidity: 86%   Direction: 170°S
Pressure: 29.85"   Gusts: NA
Location:  55.21°N, 36.49°E
Report Text: UUWW 281400Z 17003MPS 9999 SCT011 OVC100 M05/M07 Q1011 24450240TEMPO SCT005
Loading
Personal Weather Stations






























Interactive Weather Map New forecast layout! Learn more

10-Day Weather Forecast

Advertisements
Track Severe Weather on mobile